Time;durP1;ratioP1;P1;durP2;ratioP2;P2;SDS_P1;SDS_P2;PMS_P1;PMS_P2;Temp;Humidity;BMP_temperature;BMP_pressure;BME280_temperature;BME280_humidity;BME280_pressure;Samples;Min_cycle;Max_cycle;Signal;HPM_P1;HPM_P2
2021/05/06 00:32:51;;;;;;;;;;;;;;;7.09;68.35;100065.16;5031609;28;20117;-71
2021/05/06 00:35:17;;;;;;;2.92;1.30;;;;;;;7.03;69.05;100071.78;5030520;28;19917;-71
2021/05/06 00:37:54;;;;;;;1.98;1.23;;;;;;;6.98;69.09;100061.72;5029282;28;20296;-70
2021/05/06 00:40:20;;;;;;;3.55;1.52;;;;;;;6.94;69.57;100060.34;5030206;28;20041;-70
2021/05/06 00:43:15;;;;;;;4.05;1.55;;;;;;;7.02;68.90;100059.63;5028071;28;20068;-70
2021/05/06 01:06:56;;;;;;;4.45;1.55;;;;;;;6.84;71.22;100041.13;5030792;28;20277;-72
2021/05/06 01:09:24;;;;;;;2.85;1.40;;;;;;;6.86;71.24;100038.34;5027964;28;20046;-72
2021/05/06 01:12:11;;;;;;;2.97;1.40;;;;;;;6.83;71.43;100043.88;5029418;28;20033;-72
2021/05/06 01:14:35;;;;;;;4.43;1.70;;;;;;;6.86;71.33;100048.84;5023003;28;20060;-72
2021/05/06 01:17:01;;;;;;;2.60;1.65;;;;;;;6.82;71.44;100040.44;5043255;28;20017;-73
2021/05/06 01:19:26;;;;;;;3.72;1.73;;;;;;;6.88;70.91;100041.66;5046416;28;20041;-72
2021/05/06 01:21:56;;;;;;;2.00;1.30;;;;;;;6.88;70.94;100039.84;5045632;28;20122;-73
2021/05/06 01:24:22;;;;;;;5.78;1.70;;;;;;;6.89;71.08;100036.28;5037644;28;20081;-72
2021/05/06 01:29:37;;;;;;;2.50;1.60;;;;;;;6.90;70.80;100034.47;5028902;28;20072;-73
2021/05/06 01:34:35;;;;;;;4.38;2.03;;;;;;;6.86;70.76;100023.41;5028511;28;20033;-71
2021/05/06 01:37:10;;;;;;;2.80;1.48;;;;;;;6.82;71.45;100024.66;5028719;28;20083;-71
2021/05/06 01:42:27;;;;;;;3.42;1.70;;;;;;;6.72;71.57;100019.41;5028743;28;20080;-72
2021/05/06 01:47:28;;;;;;;5.03;1.90;;;;;;;6.65;71.85;100013.06;5029184;28;20398;-72
2021/05/06 01:58:02;;;;;;;4.43;1.50;;;;;;;6.48;72.41;100014.56;5032451;28;20075;-72
2021/05/06 02:00:44;;;;;;;4.40;1.85;;;;;;;6.46;72.65;100007.78;5032366;28;20041;-72
2021/05/06 02:03:10;;;;;;;3.42;1.70;;;;;;;6.45;72.32;100012.22;5033090;28;20536;-72
2021/05/06 02:05:35;;;;;;;2.88;1.55;;;;;;;6.36;73.12;100013.03;5030943;28;20180;-72
2021/05/06 02:08:02;;;;;;;2.90;1.40;;;;;;;6.32;72.82;100015.13;5031686;28;20057;-72
2021/05/06 02:10:27;;;;;;;2.67;1.40;;;;;;;6.29;72.79;100009.31;5032781;28;20414;-72
2021/05/06 02:12:53;;;;;;;3.20;1.40;;;;;;;6.31;72.41;100013.44;5031579;28;20112;-72
2021/05/06 02:15:31;;;;;;;3.42;1.48;;;;;;;6.25;72.95;100008.75;5032706;28;20141;-72
2021/05/06 02:17:58;;;;;;;2.88;1.42;;;;;;;6.24;72.78;100001.84;5040158;28;20383;-72
2021/05/06 02:20:23;;;;;;;3.28;1.50;;;;;;;6.17;73.08;100005.97;5030700;28;20068;-72
2021/05/06 02:22:50;;;;;;;3.22;1.60;;;;;;;6.15;73.43;100002.69;5032335;28;20069;-72
2021/05/06 02:25:16;;;;;;;2.80;1.58;;;;;;;6.13;74.24;100001.97;5032776;28;20053;-72
2021/05/06 02:27:41;;;;;;;3.38;1.70;;;;;;;6.09;73.70;99992.72;5032035;28;20029;-72
2021/05/06 02:30:08;;;;;;;3.00;1.80;;;;;;;6.07;73.63;99984.13;5031911;28;20044;-72
2021/05/06 02:32:33;;;;;;;3.30;1.90;;;;;;;5.97;74.38;99978.88;5031367;28;20435;-72
2021/05/06 02:34:59;;;;;;;3.30;1.75;;;;;;;5.96;74.56;99974.59;5032050;28;20065;-72
2021/05/06 02:37:25;;;;;;;5.22;1.92;;;;;;;5.94;74.42;99968.66;5031645;28;20044;-72
2021/05/06 02:39:50;;;;;;;3.28;1.80;;;;;;;5.94;74.24;99968.66;5032556;28;20125;-72
2021/05/06 02:42:16;;;;;;;4.13;1.77;;;;;;;5.86;75.26;99971.91;5031867;28;20140;-72
2021/05/06 02:44:41;;;;;;;3.80;1.85;;;;;;;5.85;75.67;99974.69;5032750;28;20060;-72
2021/05/06 02:47:08;;;;;;;3.47;1.63;;;;;;;5.81;75.73;99984.59;5033282;28;20043;-72
2021/05/06 02:49:34;;;;;;;3.08;1.90;;;;;;;5.81;75.58;99974.09;5032954;28;20104;-72
2021/05/06 02:52:08;;;;;;;3.83;1.90;;;;;;;5.78;76.43;99968.31;5031179;28;20038;-72
2021/05/06 02:54:44;;;;;;;5.28;2.03;;;;;;;5.73;76.39;99964.28;5029937;28;20150;-72
2021/05/06 03:05:13;;;;;;;5.68;1.70;;;;;;;5.86;74.87;99960.59;5031132;28;20103;-72
2021/05/06 03:07:41;;;;;;;4.45;1.70;;;;;;;5.92;74.67;99955.63;5029770;28;20045;-72
2021/05/06 03:23:27;;;;;;;3.72;1.58;;;;;;;5.98;75.31;99949.03;5030985;28;20518;-72
2021/05/06 03:25:54;;;;;;;3.42;1.45;;;;;;;6.01;75.96;99950.59;5031681;28;20112;-72
2021/05/06 03:28:29;;;;;;;3.53;1.83;;;;;;;6.08;74.74;99949.88;5030339;28;20029;-72
2021/05/06 03:41:43;;;;;;;4.65;1.95;;;;;;;6.26;74.30;99947.41;5030394;28;20268;-73
2021/05/06 03:49:45;;;;;;;3.60;1.60;;;;;;;6.29;74.20;99946.28;5031088;28;20042;-72
2021/05/06 04:16:34;;;;;;;3.00;1.60;;;;;;;6.52;73.68;99949.47;5030033;28;20477;-73
2021/05/06 04:37:33;;;;;;;4.43;2.22;;;;;;;6.51;74.46;99934.69;5030193;28;20040;-72
2021/05/06 04:40:04;;;;;;;3.22;1.60;;;;;;;6.58;74.07;99944.47;5030519;28;20120;-71
2021/05/06 04:43:02;;;;;;;3.65;1.67;;;;;;;6.58;74.17;99941.84;5027500;28;20116;-72
2021/05/06 05:03:55;;;;;;;4.30;1.75;;;;;;;6.40;77.38;99947.97;5030384;28;20079;-72
2021/05/06 05:06:24;;;;;;;2.63;1.67;;;;;;;6.27;78.30;99950.84;5029302;28;20575;-72
2021/05/06 05:11:32;;;;;;;7.28;1.70;;;;;;;6.27;76.32;99945.59;5029741;28;20406;-72
2021/05/06 05:14:28;;;;;;;5.40;1.67;;;;;;;6.15;78.02;99943.13;5028095;28;20028;-73
2021/05/06 05:25:04;;;;;;;2.10;1.10;;;;;;;6.18;79.79;99935.94;5029654;28;20398;-72
2021/05/06 05:27:29;;;;;;;4.43;1.55;;;;;;;6.20;80.50;99931.34;5014326;28;20033;-72
2021/05/06 05:29:55;;;;;;;4.18;1.45;;;;;;;6.22;81.50;99926.81;5029434;28;20536;-73
2021/05/06 05:32:21;;;;;;;2.88;1.38;;;;;;;6.21;82.33;99939.09;5028492;28;20051;-73
2021/05/06 05:35:02;;;;;;;2.88;1.40;;;;;;;6.22;82.16;99935.53;5029026;28;20025;-72
2021/05/06 05:37:39;;;;;;;3.72;1.50;;;;;;;6.18;81.16;99938.56;5030007;28;20402;-73
2021/05/06 05:40:18;;;;;;;3.65;1.60;;;;;;;6.25;78.62;99931.81;5029621;28;20038;-73
2021/05/06 05:55:58;;;;;;;2.15;1.10;;;;;;;6.09;83.40;99946.28;5030096;28;20140;-73
2021/05/06 05:58:23;;;;;;;2.45;1.20;;;;;;;6.18;82.08;99949.06;5028418;28;20053;-73
2021/05/06 06:00:48;;;;;;;5.60;1.58;;;;;;;6.15;82.54;99948.38;5029126;28;20033;-73
2021/05/06 06:03:14;;;;;;;3.53;1.58;;;;;;;6.12;85.65;99946.00;5028926;28;20394;-73
2021/05/06 06:05:39;;;;;;;2.97;1.50;;;;;;;6.15;82.84;99951.00;5028974;28;20049;-73
2021/05/06 06:08:06;;;;;;;3.38;1.67;;;;;;;6.21;80.54;99943.53;5028666;28;20112;-74
2021/05/06 06:10:31;;;;;;;3.67;1.90;;;;;;;6.07;85.38;99942.97;5029294;28;20067;-74
2021/05/06 06:12:57;;;;;;;4.05;1.80;;;;;;;6.00;83.14;99948.91;5026729;28;20050;-73
2021/05/06 06:17:49;;;;;;;3.35;1.23;;;;;;;6.05;83.01;99936.19;5028152;28;20033;-74
2021/05/06 06:20:14;;;;;;;4.45;1.33;;;;;;;6.06;85.51;99927.38;5027293;28;20037;-74
2021/05/06 06:22:40;;;;;;;2.42;1.50;;;;;;;6.08;88.57;99934.13;5028238;28;20379;-73
2021/05/06 06:25:06;;;;;;;4.30;1.70;;;;;;;6.10;88.26;99929.59;5028660;28;20585;-73
2021/05/06 06:27:31;;;;;;;2.78;1.20;;;;;;;6.14;86.39;99936.19;5028266;28;20064;-73
2021/05/06 06:29:58;;;;;;;3.60;1.40;;;;;;;6.21;85.66;99928.59;5028732;28;20083;-73
2021/05/06 06:32:24;;;;;;;2.22;1.30;;;;;;;6.21;88.07;99930.41;5027454;28;20044;-74
2021/05/06 06:34:50;;;;;;;3.67;1.30;;;;;;;6.21;88.68;99931.22;5028870;28;20037;-73
2021/05/06 06:37:16;;;;;;;3.38;1.20;;;;;;;6.27;86.68;99932.47;5027757;28;20037;-74
2021/05/06 06:39:42;;;;;;;2.30;1.27;;;;;;;6.26;88.55;99936.91;5028147;28;20084;-74
2021/05/06 06:42:09;;;;;;;3.05;1.40;;;;;;;6.28;89.62;99932.34;5027895;28;20030;-74
2021/05/06 06:44:35;;;;;;;3.58;1.65;;;;;;;6.24;90.06;99928.31;5032931;28;20033;-74
2021/05/06 06:47:01;;;;;;;3.55;1.60;;;;;;;6.23;89.95;99931.94;5031878;28;20044;-73
2021/05/06 06:49:38;;;;;;;4.53;1.60;;;;;;;6.21;90.30;99930.41;5032439;28;20034;-74
2021/05/06 06:52:07;;;;;;;3.42;1.77;;;;;;;6.16;89.07;99939.53;5028569;28;20040;-73
2021/05/06 06:54:32;;;;;;;2.08;1.40;;;;;;;6.20;89.47;99931.34;5032047;28;20068;-73
2021/05/06 06:56:58;;;;;;;4.03;1.77;;;;;;;6.26;89.77;99942.16;5032089;28;20113;-73
2021/05/06 06:59:23;;;;;;;3.75;1.60;;;;;;;6.29;89.65;99933.16;5031524;28;20365;-73
2021/05/06 07:01:49;;;;;;;3.88;1.55;;;;;;;6.30;89.68;99938.28;5028426;28;20108;-72
2021/05/06 07:04:14;;;;;;;2.28;1.30;;;;;;;6.31;89.80;99939.09;5028680;28;20030;-73
2021/05/06 07:06:39;;;;;;;2.38;1.50;;;;;;;6.33;87.15;99931.91;5030547;28;20511;-73
2021/05/06 07:09:08;;;;;;;4.57;1.88;;;;;;;6.37;86.71;99931.50;5031825;28;20041;-72
2021/05/06 07:11:34;;;;;;;3.30;1.63;;;;;;;6.36;86.75;99932.50;5031634;28;20455;-73
2021/05/06 07:13:59;;;;;;;3.58;1.90;;;;;;;6.37;87.13;99936.75;5031227;28;20116;-73
2021/05/06 07:16:25;;;;;;;4.70;1.85;;;;;;;6.27;87.42;99938.56;5029137;28;20044;-73
2021/05/06 07:18:50;;;;;;;3.90;1.98;;;;;;;6.30;87.65;99934.84;5031116;28;20099;-73
2021/05/06 07:21:15;;;;;;;3.15;1.77;;;;;;;6.34;86.66;99937.03;5032683;28;20045;-72
2021/05/06 07:23:40;;;;;;;5.18;2.30;;;;;;;6.35;86.43;99940.50;5043023;28;20037;-73
2021/05/06 07:26:06;;;;;;;5.32;2.50;;;;;;;6.34;85.07;99936.19;5029717;28;20044;-73
2021/05/06 07:28:38;;;;;;;4.53;2.50;;;;;;;6.35;84.23;99937.88;5033745;28;20036;-73
2021/05/06 07:31:05;;;;;;;5.60;2.58;;;;;;;6.36;83.33;99929.00;5031183;28;20045;-72
2021/05/06 07:33:31;;;;;;;8.27;2.50;;;;;;;6.19;86.64;99933.16;5032753;28;20076;-72
2021/05/06 07:35:58;;;;;;;7.85;2.08;;;;;;;6.23;84.63;99931.09;5038248;28;20034;-72
2021/05/06 07:38:24;;;;;;;4.95;2.10;;;;;;;6.28;84.42;99928.88;5040040;28;20493;-72
2021/05/06 07:40:51;;;;;;;3.47;1.60;;;;;;;6.23;87.18;99925.84;5051751;28;20318;-72
2021/05/06 07:43:17;;;;;;;5.07;2.03;;;;;;;6.27;86.02;99932.47;5031403;28;20044;-72
2021/05/06 07:45:42;;;;;;;3.47;1.50;;;;;;;6.22;87.29;99921.56;5031523;28;20049;-72
2021/05/06 07:48:08;;;;;;;4.20;1.90;;;;;;;6.21;86.46;99925.16;5030072;28;20632;-73
2021/05/06 07:50:34;;;;;;;5.45;1.80;;;;;;;6.24;85.77;99923.06;5031280;28;20037;-72
2021/05/06 07:53:11;;;;;;;5.55;2.28;;;;;;;6.16;85.35;99923.78;5030231;28;20385;-72
2021/05/06 07:55:37;;;;;;;7.88;2.40;;;;;;;6.16;85.31;99913.28;5031141;28;20470;-73
2021/05/06 07:58:04;;;;;;;5.22;2.00;;;;;;;6.10;86.39;99911.22;5031079;28;20323;-72
2021/05/06 08:00:30;;;;;;;6.45;2.33;;;;;;;6.11;85.98;99914.66;5030288;28;20068;-72
2021/05/06 08:02:56;;;;;;;5.95;2.53;;;;;;;6.21;83.96;99920.72;5031085;28;20053;-73
2021/05/06 08:05:23;;;;;;;4.28;2.10;;;;;;;6.14;85.92;99920.44;5031115;28;20053;-73
2021/05/06 08:07:49;;;;;;;5.95;2.25;;;;;;;6.14;86.60;99915.19;5030956;28;20060;-72
2021/05/06 08:10:16;;;;;;;5.80;2.55;;;;;;;6.24;84.78;99922.25;5031178;28;20033;-72
2021/05/06 08:12:42;;;;;;;6.00;2.67;;;;;;;6.19;85.82;99919.22;5030863;28;20485;-72
2021/05/06 08:15:08;;;;;;;6.93;2.10;;;;;;;6.25;85.99;99913.41;5031567;28;20041;-72
2021/05/06 08:17:38;;;;;;;5.20;2.42;;;;;;;6.31;84.72;99907.59;5031100;28;20038;-73
2021/05/06 08:20:10;;;;;;;8.15;3.00;;;;;;;6.37;84.94;99896.53;5030891;28;20518;-73
2021/05/06 08:22:36;;;;;;;5.80;2.78;;;;;;;6.41;85.03;99899.72;5031845;28;20030;-72
2021/05/06 08:25:03;;;;;;;6.38;2.90;;;;;;;6.47;84.85;99897.34;5031314;28;20188;-72
2021/05/06 08:27:31;;;;;;;6.95;3.10;;;;;;;6.53;85.55;99902.06;5031331;28;20033;-72
2021/05/06 08:29:56;;;;;;;5.18;2.50;;;;;;;6.72;87.54;99903.81;5030818;28;20036;-72
2021/05/06 08:32:21;;;;;;;6.30;3.35;;;;;;;7.02;85.40;99896.66;5030221;28;20037;-73
2021/05/06 08:34:47;;;;;;;5.93;3.10;;;;;;;7.37;85.01;99898.56;5030999;28;20116;-73
2021/05/06 08:37:13;;;;;;;6.10;2.72;;;;;;;7.63;84.69;99892.63;5031152;28;20034;-73
2021/05/06 08:39:38;;;;;;;6.10;3.03;;;;;;;8.04;83.96;99893.84;5027905;28;20044;-72
2021/05/06 08:42:03;;;;;;;9.02;2.92;;;;;;;8.37;82.74;99888.84;5030744;28;20045;-73
2021/05/06 08:44:32;;;;;;;5.30;3.08;;;;;;;8.40;77.00;99882.47;5030110;28;20049;-73
2021/05/06 08:47:11;;;;;;;4.38;2.35;;;;;;;8.17;79.12;99888.16;5029940;28;20033;-73
2021/05/06 08:49:38;;;;;;;7.60;2.60;;;;;;;8.33;77.78;99892.75;5030643;28;20037;-73
2021/05/06 08:52:06;;;;;;;6.13;2.45;;;;;;;8.45;77.19;99885.47;5028574;28;20040;-73
2021/05/06 08:54:31;;;;;;;5.28;2.42;;;;;;;8.28;75.01;99885.31;5029226;28;20029;-73
2021/05/06 08:56:57;;;;;;;3.83;2.10;;;;;;;8.28;75.53;99874.78;5038632;28;20120;-73
2021/05/06 08:59:23;;;;;;;6.40;2.78;;;;;;;8.28;74.37;99876.59;5050596;28;20087;-72
2021/05/06 09:01:49;;;;;;;5.38;2.55;;;;;;;8.05;76.53;99882.31;5030371;28;20644;-72
2021/05/06 09:04:14;;;;;;;5.07;2.80;;;;;;;8.12;76.59;99893.06;5027481;28;20037;-73
2021/05/06 09:07:00;;;;;;;5.82;2.88;;;;;;;8.19;78.08;99888.84;5029552;28;20171;-73
2021/05/06 09:09:27;;;;;;;6.05;2.58;;;;;;;8.11;78.89;99882.72;5029228;28;20033;-72
2021/05/06 09:12:03;;;;;;;5.57;2.53;;;;;;;8.06;77.41;99875.25;5027746;28;20125;-73
2021/05/06 09:14:37;;;;;;;5.40;2.42;;;;;;;8.29;76.77;99876.44;5029073;28;20029;-73
2021/05/06 09:17:03;;;;;;;5.13;2.60;;;;;;;8.36;77.46;99881.09;5029914;28;20029;-72
2021/05/06 09:19:28;;;;;;;4.55;2.60;;;;;;;8.41;79.49;99878.84;5029428;28;20081;-72
2021/05/06 09:21:55;;;;;;;3.75;2.20;;;;;;;8.49;80.97;99877.09;5029569;28;20419;-73
2021/05/06 09:24:27;;;;;;;5.75;2.45;;;;;;;8.71;76.60;99873.13;5027357;28;20099;-72
2021/05/06 09:26:54;;;;;;;6.60;2.70;;;;;;;8.79;76.40;99882.06;5031656;28;20505;-73
2021/05/06 09:29:41;;;;;;;4.22;2.22;;;;;;;8.74;77.53;99890.44;5033619;28;20056;-73
2021/05/06 09:32:23;;;;;;;5.88;2.65;;;;;;;8.68;78.94;99886.63;5041668;28;20141;-72
2021/05/06 09:34:51;;;;;;;;;;;;;;;8.69;77.38;99888.25;5029826;28;20025;-72
2021/05/06 09:37:25;;;;;;;7.53;3.00;;;;;;;8.77;75.53;99889.28;5029602;28;20063;-73
2021/05/06 09:40:03;;;;;;;5.68;2.50;;;;;;;8.63;77.40;99888.91;5029525;28;20064;-72
2021/05/06 09:42:40;;;;;;;3.97;2.25;;;;;;;8.74;77.31;99879.88;5028420;28;20037;-72
2021/05/06 09:45:06;;;;;;;6.93;2.90;;;;;;;8.39;80.83;99886.03;5029263;28;20033;-72
2021/05/06 09:47:32;;;;;;;4.88;3.00;;;;;;;8.47;79.53;99888.78;5029088;28;20043;-72
2021/05/06 09:49:57;;;;;;;2.97;2.20;;;;;;;8.56;78.15;99882.59;5029314;28;20029;-72
2021/05/06 09:52:23;;;;;;;6.82;3.10;;;;;;;8.62;77.73;99884.59;5028468;28;20038;-72
2021/05/06 09:54:53;;;;;;;7.25;3.35;;;;;;;8.74;78.41;99879.06;5028917;28;20418;-72
2021/05/06 09:57:31;;;;;;;4.78;2.90;;;;;;;8.92;76.67;99864.84;5029527;28;20033;-72
2021/05/06 10:00:16;;;;;;;5.97;3.28;;;;;;;9.10;76.91;99869.19;5029216;28;20490;-72
2021/05/06 10:02:42;;;;;;;5.60;2.30;;;;;;;9.51;78.08;99862.25;5042005;28;20405;-73
2021/05/06 10:05:10;;;;;;;5.10;3.00;;;;;;;9.68;72.08;99857.03;5029715;28;20033;-72
2021/05/06 10:07:36;;;;;;;6.97;3.25;;;;;;;9.79;72.90;99857.50;5029509;28;20029;-72
2021/05/06 10:10:06;;;;;;;3.85;2.70;;;;;;;10.02;72.72;99848.13;5029945;28;20095;-73
2021/05/06 10:12:34;;;;;;;3.72;2.63;;;;;;;10.13;71.23;99840.72;5026551;28;20033;-72
2021/05/06 10:15:00;;;;;;;4.97;2.85;;;;;;;10.29;73.05;99849.63;5036322;28;20512;-73
2021/05/06 10:17:28;;;;;;;5.88;3.20;;;;;;;10.42;71.25;99842.03;5037444;28;20087;-72
2021/05/06 10:19:55;;;;;;;5.63;2.63;;;;;;;10.74;71.37;99835.00;5038225;28;20585;-72
2021/05/06 10:22:23;;;;;;;4.57;3.10;;;;;;;10.70;69.43;99831.91;5031388;28;20379;-72
2021/05/06 10:24:49;;;;;;;5.05;3.00;;;;;;;10.54;70.92;99838.03;5032760;28;20038;-71
2021/05/06 10:27:22;;;;;;;4.70;2.65;;;;;;;10.64;71.03;99832.56;5032338;28;20033;-72
2021/05/06 10:29:52;;;;;;;7.55;3.10;;;;;;;11.04;67.48;99820.19;5038929;28;20038;-71
2021/05/06 10:32:18;;;;;;;4.25;2.92;;;;;;;11.01;67.66;99820.53;5043483;28;20413;-71
2021/05/06 10:34:47;;;;;;;5.90;3.00;;;;;;;11.25;66.69;99809.84;5032705;28;20033;-73
2021/05/06 10:37:14;;;;;;;4.93;2.55;;;;;;;11.27;66.09;99799.91;5033589;28;20037;-74
2021/05/06 10:39:42;;;;;;;3.55;2.85;;;;;;;11.39;65.95;99787.09;5034160;28;20405;-72
2021/05/06 10:42:28;;;;;;;4.63;2.90;;;;;;;11.53;65.66;99777.56;5031655;28;20033;-73
2021/05/06 10:45:14;;;;;;;3.47;2.53;;;;;;;11.46;65.42;99760.72;5030160;28;20052;-72
2021/05/06 10:47:46;;;;;;;5.50;2.70;;;;;;;11.59;64.69;99760.16;5032132;28;20444;-72
2021/05/06 10:50:25;;;;;;;4.18;2.60;;;;;;;11.65;65.95;99781.44;5031117;28;20045;-72
2021/05/06 10:52:55;;;;;;;3.85;2.50;;;;;;;11.73;66.41;99791.16;5032110;28;20041;-72
2021/05/06 10:55:41;;;;;;;5.03;3.08;;;;;;;12.01;65.39;99766.78;5032484;28;20034;-72
2021/05/06 10:58:22;;;;;;;5.00;2.80;;;;;;;12.11;63.72;99756.78;5031330;28;20034;-72
2021/05/06 11:01:05;;;;;;;4.05;2.90;;;;;;;12.24;62.89;99748.19;5020698;28;20033;-71
2021/05/06 11:03:32;;;;;;;4.40;2.60;;;;;;;11.95;62.63;99749.78;5031182;28;20421;-71
2021/05/06 11:05:58;;;;;;;3.53;2.33;;;;;;;11.94;62.78;99750.81;5031770;28;20120;-72
2021/05/06 11:08:29;;;;;;;4.35;2.60;;;;;;;11.66;65.93;99759.28;5031734;28;20144;-72
2021/05/06 11:11:00;;;;;;;3.85;2.40;;;;;;;11.76;64.00;99743.13;5032874;28;20029;-71
2021/05/06 11:13:28;;;;;;;4.40;2.40;;;;;;;11.84;64.42;99745.69;5032078;28;20069;-71
2021/05/06 11:16:15;;;;;;;6.80;2.90;;;;;;;11.86;62.93;99748.19;5031625;28;20515;-72
2021/05/06 11:18:51;;;;;;;3.80;2.92;;;;;;;11.73;63.34;99748.78;5028936;28;20135;-72
2021/05/06 11:21:34;;;;;;;4.63;2.83;;;;;;;11.45;63.05;99730.78;5032749;28;20034;-71
2021/05/06 11:24:19;;;;;;;7.63;3.10;;;;;;;11.35;63.72;99735.50;5031791;28;20045;-73
2021/05/06 11:26:59;;;;;;;4.43;2.88;;;;;;;10.94;68.82;99727.81;5031542;28;20044;-73
2021/05/06 11:29:29;;;;;;;3.73;2.10;;;;;;;11.01;67.11;99722.66;5029840;28;20116;-73
2021/05/06 11:31:55;;;;;;;6.57;3.25;;;;;;;10.89;65.72;99710.81;5028833;28;20662;-73
2021/05/06 11:34:34;;;;;;;4.28;2.35;;;;;;;10.97;65.85;99710.78;5030293;28;20135;-73
2021/05/06 11:37:29;;;;;;;5.95;3.25;;;;;;;10.94;65.70;99714.59;5025346;28;20033;-73
2021/05/06 11:40:09;;;;;;;6.72;3.03;;;;;;;10.76;65.42;99698.97;5031451;28;20713;-72
2021/05/06 11:42:39;;;;;;;6.13;2.80;;;;;;;10.68;66.86;99688.47;5026705;28;20029;-72
2021/05/06 11:45:05;;;;;;;4.60;2.63;;;;;;;10.66;66.62;99690.44;5031380;28;20042;-72
2021/05/06 11:47:30;;;;;;;4.78;2.83;;;;;;;10.71;66.55;99687.28;5030162;28;20037;-72
2021/05/06 11:49:55;;;;;;;4.90;2.55;;;;;;;10.68;67.30;99691.09;5031098;28;20037;-71
2021/05/06 11:52:41;;;;;;;7.93;3.20;;;;;;;10.60;64.61;99693.78;5029859;28;20056;-72
2021/05/06 11:55:06;;;;;;;6.75;2.80;;;;;;;10.53;65.99;99684.88;5030973;28;20038;-73
2021/05/06 11:57:32;;;;;;;4.88;2.50;;;;;;;10.48;67.25;99679.28;5030067;28;20045;-73
2021/05/06 11:59:59;;;;;;;7.40;2.65;;;;;;;10.44;68.01;99680.63;5031028;28;20034;-72
2021/05/06 12:02:24;;;;;;;3.97;2.65;;;;;;;10.45;66.89;99677.81;5030152;28;20038;-72
2021/05/06 12:04:53;;;;;;;6.65;2.78;;;;;;;10.38;67.31;99667.09;5031136;28;20044;-73
2021/05/06 12:07:21;;;;;;;7.45;2.80;;;;;;;10.39;67.54;99665.28;5031306;28;20043;-72
2021/05/06 12:09:48;;;;;;;5.35;2.80;;;;;;;10.21;67.16;99652.28;5031285;28;20084;-72
2021/05/06 12:12:24;;;;;;;6.57;2.50;;;;;;;10.24;66.78;99657.22;5028879;28;20057;-72
2021/05/06 12:14:49;;;;;;;6.18;2.40;;;;;;;10.25;66.80;99655.41;5023959;28;20225;-73
2021/05/06 12:17:21;;;;;;;6.38;2.50;;;;;;;10.25;67.35;99652.75;5032186;28;20036;-72
2021/05/06 12:19:48;;;;;;;5.40;2.45;;;;;;;10.24;67.83;99644.00;5030559;28;20113;-73
2021/05/06 12:22:15;;;;;;;5.05;2.20;;;;;;;10.31;66.80;99644.19;5029819;28;20077;-73
2021/05/06 12:24:45;;;;;;;7.22;2.65;;;;;;;10.27;67.45;99641.00;5029461;28;20121;-72
2021/05/06 12:27:27;;;;;;;6.10;2.80;;;;;;;10.30;67.91;99638.09;5030730;28;20044;-72
2021/05/06 12:29:55;;;;;;;6.20;2.42;;;;;;;10.12;70.04;99634.81;5030442;28;20107;-73
2021/05/06 12:32:23;;;;;;;7.72;3.10;;;;;;;9.92;70.94;99650.25;5028664;28;20055;-71
2021/05/06 12:34:48;;;;;;;9.23;3.10;;;;;;;9.68;72.01;99641.38;5030513;28;20037;-71
2021/05/06 12:37:15;;;;;;;8.05;3.17;;;;;;;9.44;75.74;99644.00;5030773;28;20401;-72
2021/05/06 12:39:42;;;;;;;7.72;3.33;;;;;;;9.35;75.67;99646.66;5030902;28;20099;-71
2021/05/06 12:42:08;;;;;;;8.43;3.45;;;;;;;9.16;77.08;99644.38;5029191;28;20054;-71
2021/05/06 12:44:47;;;;;;;7.78;4.10;;;;;;;9.10;77.20;99631.81;5029972;28;20037;-71
2021/05/06 12:47:16;;;;;;;10.32;4.57;;;;;;;8.99;77.13;99624.25;5012772;28;20110;-69
2021/05/06 12:49:43;;;;;;;8.25;3.95;;;;;;;8.83;79.16;99617.97;5023687;28;20041;-70
2021/05/06 12:52:28;;;;;;;7.20;4.40;;;;;;;8.85;78.32;99617.81;5017843;28;20508;-70
2021/05/06 12:54:53;;;;;;;11.50;4.72;;;;;;;8.86;77.86;99614.19;5024033;28;20041;-73
2021/05/06 12:57:19;;;;;;;6.50;4.22;;;;;;;8.87;79.56;99614.03;5025599;28;20102;-70
2021/05/06 12:59:48;;;;;;;8.60;4.25;;;;;;;8.93;80.18;99605.44;5024696;28;20127;-70
2021/05/06 13:02:15;;;;;;;9.02;4.45;;;;;;;8.93;79.57;99596.72;5023858;28;20398;-72
2021/05/06 13:04:52;;;;;;;8.93;4.38;;;;;;;8.89;79.67;99598.03;5025212;28;20045;-71
2021/05/06 13:07:18;;;;;;;7.43;4.35;;;;;;;8.89;78.50;99590.97;5024010;28;20037;-72
2021/05/06 13:09:50;;;;;;;7.15;3.70;;;;;;;8.82;79.14;99586.47;5025384;28;20593;-72
2021/05/06 13:12:18;;;;;;;6.93;3.67;;;;;;;8.77;78.94;99583.53;5021593;28;20034;-70
2021/05/06 13:14:44;;;;;;;9.38;3.53;;;;;;;8.75;78.21;99567.03;5024595;28;20553;-70
2021/05/06 13:17:23;;;;;;;5.28;3.17;;;;;;;8.72;78.24;99557.66;5028375;28;20045;-69
2021/05/06 13:19:48;;;;;;;5.43;2.88;;;;;;;8.67;79.08;99547.59;5025040;28;20061;-71
2021/05/06 13:22:13;;;;;;;4.90;3.10;;;;;;;8.78;77.79;99554.38;5026259;28;20065;-69
2021/05/06 13:24:40;;;;;;;6.90;3.15;;;;;;;8.83;78.22;99548.59;5024413;28;20060;-70
2021/05/06 13:27:20;;;;;;;5.93;3.20;;;;;;;8.89;78.35;99550.56;5026324;28;20111;-70
2021/05/06 13:29:47;;;;;;;5.70;3.50;;;;;;;9.00;78.25;99552.06;5025281;28;20398;-70
2021/05/06 13:32:12;;;;;;;6.72;3.20;;;;;;;8.96;79.19;99541.00;5022075;28;20135;-70
2021/05/06 13:34:52;;;;;;;6.50;3.88;;;;;;;9.02;78.22;99547.44;5024817;28;20407;-70
2021/05/06 13:37:17;;;;;;;7.78;3.78;;;;;;;8.99;78.36;99535.44;5015686;28;20120;-69
2021/05/06 13:39:43;;;;;;;5.45;3.60;;;;;;;8.88;78.85;99533.13;5026220;28;20179;-70
2021/05/06 13:42:08;;;;;;;5.55;3.50;;;;;;;8.81;80.03;99538.22;5023887;28;20447;-69
2021/05/06 13:44:35;;;;;;;4.68;2.63;;;;;;;8.80;79.94;99530.50;5025210;28;20041;-69
2021/05/06 13:47:05;;;;;;;5.53;2.85;;;;;;;8.76;80.23;99519.44;5022597;28;20103;-68
2021/05/06 13:49:33;;;;;;;3.83;2.60;;;;;;;8.73;79.98;99511.88;5028299;28;20103;-68
2021/05/06 13:51:59;;;;;;;4.22;2.80;;;;;;;8.71;79.97;99517.28;5026947;28;20573;-71
2021/05/06 13:54:27;;;;;;;4.40;2.47;;;;;;;8.76;80.16;99508.91;5025856;28;20049;-69
2021/05/06 13:56:52;;;;;;;4.30;2.47;;;;;;;8.85;79.38;99507.91;5026540;28;20034;-69
2021/05/06 13:59:18;;;;;;;3.78;2.15;;;;;;;8.71;nan;99496.22;5023847;28;20155;-71
2021/05/06 14:01:51;;;;;;;4.65;2.38;;;;;;;8.69;82.43;99503.47;5013997;28;20030;-70
2021/05/06 14:04:16;;;;;;;5.18;2.70;;;;;;;8.79;80.77;99497.19;5025255;28;20083;-71
2021/05/06 14:06:42;;;;;;;3.10;2.00;;;;;;;8.69;81.69;99497.38;5024098;28;20441;-71
2021/05/06 14:09:14;;;;;;;3.95;2.00;;;;;;;8.60;82.85;99495.72;5026170;28;20037;-69
2021/05/06 14:11:39;;;;;;;3.60;1.83;;;;;;;8.59;82.43;99486.19;5023926;28;20060;-69
2021/05/06 14:14:04;;;;;;;3.40;1.75;;;;;;;8.66;81.92;99487.97;5024998;28;20482;-73
2021/05/06 14:16:30;;;;;;;2.85;1.90;;;;;;;8.57;82.28;99481.06;5022205;28;20033;-70
2021/05/06 14:18:55;;;;;;;3.00;1.70;;;;;;;8.54;82.95;99470.03;5025499;28;20053;-70
2021/05/06 14:21:23;;;;;;;3.53;1.83;;;;;;;8.53;83.07;99463.09;5024375;28;20082;-71
2021/05/06 14:23:51;;;;;;;2.97;1.67;;;;;;;8.53;83.46;99455.19;5024600;28;20519;-71
2021/05/06 14:26:18;;;;;;;3.30;1.95;;;;;;;8.53;82.81;99449.94;5026867;28;20044;-71
2021/05/06 14:28:44;;;;;;;2.15;1.60;;;;;;;8.48;84.13;99434.63;5025702;28;20544;-73
2021/05/06 14:31:09;;;;;;;4.07;1.80;;;;;;;8.52;84.22;99420.13;5029351;28;20037;-73
2021/05/06 14:33:36;;;;;;;2.70;1.60;;;;;;;8.62;85.00;99428.69;5036184;28;20042;-73
2021/05/06 14:36:05;;;;;;;2.90;1.60;;;;;;;8.74;84.35;99415.16;5033386;28;20044;-73
2021/05/06 14:38:31;;;;;;;4.38;1.98;;;;;;;8.72;83.49;99423.22;5035075;28;20112;-73
2021/05/06 14:40:57;;;;;;;2.35;1.50;;;;;;;8.66;83.09;99424.72;5023494;28;20120;-73
2021/05/06 14:43:22;;;;;;;2.58;1.40;;;;;;;8.58;83.08;99416.00;5021383;28;20429;-73
2021/05/06 14:45:47;;;;;;;3.13;1.58;;;;;;;8.48;83.24;99417.00;5024970;28;20037;-73
2021/05/06 14:48:14;;;;;;;2.88;1.70;;;;;;;8.44;84.51;99425.41;5018537;28;20045;-73
2021/05/06 14:50:40;;;;;;;2.33;1.50;;;;;;;8.44;84.75;99420.16;5024204;28;20290;-73
2021/05/06 14:53:05;;;;;;;2.75;1.50;;;;;;;8.47;83.90;99418.00;5021317;28;20805;-73
2021/05/06 14:55:31;;;;;;;2.72;1.38;;;;;;;8.50;82.99;99409.75;5022363;28;20614;-72
2021/05/06 14:57:56;;;;;;;2.45;1.67;;;;;;;8.53;83.23;99408.59;5024372;28;20095;-73
2021/05/06 15:00:23;;;;;;;2.17;1.52;;;;;;;8.41;84.20;99394.94;5023213;28;20045;-73
2021/05/06 15:02:49;;;;;;;2.30;1.60;;;;;;;8.44;84.50;99391.16;5025222;28;20129;-73
2021/05/06 15:05:15;;;;;;;3.00;2.00;;;;;;;8.52;83.27;99383.25;5027443;28;20075;-73